sensor_id;sensor_type;location;lat;lon;timestamp;temperature;humidity
23873;DHT22;42884;50.718;4.630;2024-02-14T00:01:08;9.90;99.90
23873;DHT22;42884;50.718;4.630;2024-02-14T00:03:35;10.00;99.90
23873;DHT22;42884;50.718;4.630;2024-02-14T00:06:03;10.00;99.90
23873;DHT22;42884;50.718;4.630;2024-02-14T00:08:29;10.00;99.90
23873;DHT22;42884;50.718;4.630;2024-02-14T00:10:55;10.00;99.90
23873;DHT22;42884;50.718;4.630;2024-02-14T00:13:21;9.90;99.90
23873;DHT22;42884;50.718;4.630;2024-02-14T00:15:47;9.90;99.90
23873;DHT22;42884;50.718;4.630;2024-02-14T00:18:13;9.90;99.90
23873;DHT22;42884;50.718;4.630;2024-02-14T00:20:41;10.00;99.90
23873;DHT22;42884;50.718;4.630;2024-02-14T00:23:06;10.10;99.90
23873;DHT22;42884;50.718;4.630;2024-02-14T00:25:32;10.10;99.90
23873;DHT22;42884;50.718;4.630;2024-02-14T00:27:58;10.10;99.90
23873;DHT22;42884;50.718;4.630;2024-02-14T00:30:26;10.10;99.90
23873;DHT22;42884;50.718;4.630;2024-02-14T00:32:52;10.20;99.90
23873;DHT22;42884;50.718;4.630;2024-02-14T00:35:18;10.20;99.90
23873;DHT22;42884;50.718;4.630;2024-02-14T00:37:44;10.20;99.90
23873;DHT22;42884;50.718;4.630;2024-02-14T00:40:10;10.30;99.90
23873;DHT22;42884;50.718;4.630;2024-02-14T00:42:36;10.20;99.90
23873;DHT22;42884;50.718;4.630;2024-02-14T00:45:02;10.10;99.90
23873;DHT22;42884;50.718;4.630;2024-02-14T00:47:28;10.00;99.90
23873;DHT22;42884;50.718;4.630;2024-02-14T00:49:54;10.00;99.90
23873;DHT22;42884;50.718;4.630;2024-02-14T00:52:19;10.00;99.90
23873;DHT22;42884;50.718;4.630;2024-02-14T00:54:47;10.10;99.90
23873;DHT22;42884;50.718;4.630;2024-02-14T00:57:13;10.10;99.90
23873;DHT22;42884;50.718;4.630;2024-02-14T00:59:38;10.10;99.90
23873;DHT22;42884;50.718;4.630;2024-02-14T01:02:04;10.10;99.90
23873;DHT22;42884;50.718;4.630;2024-02-14T01:04:30;10.20;99.90
23873;DHT22;42884;50.718;4.630;2024-02-14T01:06:56;10.10;99.90
23873;DHT22;42884;50.718;4.630;2024-02-14T01:09:21;10.10;99.90
23873;DHT22;42884;50.718;4.630;2024-02-14T01:11:47;10.20;99.90
23873;DHT22;42884;50.718;4.630;2024-02-14T01:14:14;10.10;99.90
23873;DHT22;42884;50.718;4.630;2024-02-14T01:16:44;10.20;99.90
23873;DHT22;42884;50.718;4.630;2024-02-14T01:19:10;10.20;99.90
23873;DHT22;42884;50.718;4.630;2024-02-14T01:21:37;10.20;99.90
23873;DHT22;42884;50.718;4.630;2024-02-14T01:24:03;10.30;99.90
23873;DHT22;42884;50.718;4.630;2024-02-14T01:26:30;10.40;99.90
23873;DHT22;42884;50.718;4.630;2024-02-14T01:28:56;10.40;99.90
23873;DHT22;42884;50.718;4.630;2024-02-14T01:31:22;10.40;99.90
23873;DHT22;42884;50.718;4.630;2024-02-14T01:33:48;10.50;99.90
23873;DHT22;42884;50.718;4.630;2024-02-14T01:36:13;10.50;99.90
23873;DHT22;42884;50.718;4.630;2024-02-14T01:38:39;10.40;99.90
23873;DHT22;42884;50.718;4.630;2024-02-14T01:41:05;10.40;99.90
23873;DHT22;42884;50.718;4.630;2024-02-14T01:43:31;10.20;99.90
23873;DHT22;42884;50.718;4.630;2024-02-14T01:46:05;10.20;99.90
23873;DHT22;42884;50.718;4.630;2024-02-14T01:48:31;10.30;99.90
23873;DHT22;42884;50.718;4.630;2024-02-14T01:50:57;10.20;99.90
23873;DHT22;42884;50.718;4.630;2024-02-14T01:53:25;10.00;99.90
23873;DHT22;42884;50.718;4.630;2024-02-14T01:55:51;10.10;99.90
23873;DHT22;42884;50.718;4.630;2024-02-14T01:58:17;10.10;99.90
23873;DHT22;42884;50.718;4.630;2024-02-14T02:00:43;10.10;99.90
23873;DHT22;42884;50.718;4.630;2024-02-14T02:03:10;10.10;99.90
23873;DHT22;42884;50.718;4.630;2024-02-14T02:05:36;10.10;99.90
23873;DHT22;42884;50.718;4.630;2024-02-14T02:08:02;10.10;99.90
23873;DHT22;42884;50.718;4.630;2024-02-14T02:10:27;10.10;99.90
23873;DHT22;42884;50.718;4.630;2024-02-14T02:13:00;10.10;99.90
23873;DHT22;42884;50.718;4.630;2024-02-14T02:15:26;10.00;99.90
23873;DHT22;42884;50.718;4.630;2024-02-14T02:17:54;10.00;99.90
23873;DHT22;42884;50.718;4.630;2024-02-14T02:20:20;10.00;99.90
23873;DHT22;42884;50.718;4.630;2024-02-14T02:22:46;9.90;99.90
23873;DHT22;42884;50.718;4.630;2024-02-14T02:25:12;10.00;99.90
23873;DHT22;42884;50.718;4.630;2024-02-14T02:27:38;10.00;99.90
23873;DHT22;42884;50.718;4.630;2024-02-14T02:30:07;10.00;99.90
23873;DHT22;42884;50.718;4.630;2024-02-14T02:32:36;9.90;99.90
23873;DHT22;42884;50.718;4.630;2024-02-14T02:35:02;10.00;99.90
23873;DHT22;42884;50.718;4.630;2024-02-14T02:37:28;10.00;99.90
23873;DHT22;42884;50.718;4.630;2024-02-14T02:39:58;10.00;99.90
23873;DHT22;42884;50.718;4.630;2024-02-14T02:42:24;10.00;99.90
23873;DHT22;42884;50.718;4.630;2024-02-14T02:44:50;10.10;99.90
23873;DHT22;42884;50.718;4.630;2024-02-14T02:47:16;10.20;99.90
23873;DHT22;42884;50.718;4.630;2024-02-14T02:49:43;10.20;99.90
23873;DHT22;42884;50.718;4.630;2024-02-14T02:52:12;10.20;99.90
23873;DHT22;42884;50.718;4.630;2024-02-14T02:54:38;10.20;99.90
23873;DHT22;42884;50.718;4.630;2024-02-14T02:57:07;10.10;99.90
23873;DHT22;42884;50.718;4.630;2024-02-14T02:59:34;10.10;99.90
23873;DHT22;42884;50.718;4.630;2024-02-14T03:02:01;10.20;99.90
23873;DHT22;42884;50.718;4.630;2024-02-14T03:04:27;10.20;99.90
23873;DHT22;42884;50.718;4.630;2024-02-14T03:06:53;10.20;99.90
23873;DHT22;42884;50.718;4.630;2024-02-14T03:09:22;10.20;99.90
23873;DHT22;42884;50.718;4.630;2024-02-14T03:11:51;10.30;99.90
23873;DHT22;42884;50.718;4.630;2024-02-14T03:14:16;10.30;99.90
23873;DHT22;42884;50.718;4.630;2024-02-14T03:16:43;10.40;99.90
23873;DHT22;42884;50.718;4.630;2024-02-14T03:19:09;10.40;99.90
23873;DHT22;42884;50.718;4.630;2024-02-14T03:21:35;10.40;99.90
23873;DHT22;42884;50.718;4.630;2024-02-14T03:24:03;10.40;99.90
23873;DHT22;42884;50.718;4.630;2024-02-14T03:26:31;10.50;99.90
23873;DHT22;42884;50.718;4.630;2024-02-14T03:29:02;10.50;99.90
23873;DHT22;42884;50.718;4.630;2024-02-14T03:31:32;10.50;99.90
23873;DHT22;42884;50.718;4.630;2024-02-14T03:33:58;10.60;99.90
23873;DHT22;42884;50.718;4.630;2024-02-14T03:36:23;10.60;99.90
23873;DHT22;42884;50.718;4.630;2024-02-14T03:38:52;10.60;99.90
23873;DHT22;42884;50.718;4.630;2024-02-14T03:41:18;10.50;99.90
23873;DHT22;42884;50.718;4.630;2024-02-14T03:43:44;10.40;99.90
23873;DHT22;42884;50.718;4.630;2024-02-14T03:46:09;10.50;99.90
23873;DHT22;42884;50.718;4.630;2024-02-14T03:48:38;10.40;99.90
23873;DHT22;42884;50.718;4.630;2024-02-14T03:51:04;10.50;99.90
23873;DHT22;42884;50.718;4.630;2024-02-14T03:53:29;10.50;99.90
23873;DHT22;42884;50.718;4.630;2024-02-14T03:55:56;10.50;99.90
23873;DHT22;42884;50.718;4.630;2024-02-14T03:58:22;10.50;99.90
23873;DHT22;42884;50.718;4.630;2024-02-14T04:00:52;10.50;99.90
23873;DHT22;42884;50.718;4.630;2024-02-14T04:03:18;10.50;99.90
23873;DHT22;42884;50.718;4.630;2024-02-14T04:05:44;10.50;99.90
23873;DHT22;42884;50.718;4.630;2024-02-14T04:08:10;10.50;99.90
23873;DHT22;42884;50.718;4.630;2024-02-14T04:10:37;10.50;99.90
23873;DHT22;42884;50.718;4.630;2024-02-14T04:13:06;10.50;99.90
23873;DHT22;42884;50.718;4.630;2024-02-14T04:15:32;10.60;99.90
23873;DHT22;42884;50.718;4.630;2024-02-14T04:17:58;10.60;99.90
23873;DHT22;42884;50.718;4.630;2024-02-14T04:20:25;10.60;99.90
23873;DHT22;42884;50.718;4.630;2024-02-14T04:22:51;10.60;99.90
23873;DHT22;42884;50.718;4.630;2024-02-14T04:25:16;10.60;99.90
23873;DHT22;42884;50.718;4.630;2024-02-14T04:27:44;10.60;99.90
23873;DHT22;42884;50.718;4.630;2024-02-14T04:30:10;10.70;99.90
23873;DHT22;42884;50.718;4.630;2024-02-14T04:32:36;10.70;99.90
23873;DHT22;42884;50.718;4.630;2024-02-14T04:35:01;10.70;99.90
23873;DHT22;42884;50.718;4.630;2024-02-14T04:37:27;10.70;99.90
23873;DHT22;42884;50.718;4.630;2024-02-14T04:39:53;10.80;99.90
23873;DHT22;42884;50.718;4.630;2024-02-14T04:42:19;10.80;99.90
23873;DHT22;42884;50.718;4.630;2024-02-14T04:44:45;10.70;99.90
23873;DHT22;42884;50.718;4.630;2024-02-14T04:47:11;10.70;99.90
23873;DHT22;42884;50.718;4.630;2024-02-14T04:49:37;10.70;99.90
23873;DHT22;42884;50.718;4.630;2024-02-14T04:52:03;10.70;99.90
23873;DHT22;42884;50.718;4.630;2024-02-14T04:54:29;10.70;99.90
23873;DHT22;42884;50.718;4.630;2024-02-14T04:56:55;10.60;99.90
23873;DHT22;42884;50.718;4.630;2024-02-14T04:59:21;10.60;99.90
23873;DHT22;42884;50.718;4.630;2024-02-14T05:01:46;10.80;99.90
23873;DHT22;42884;50.718;4.630;2024-02-14T05:04:12;10.90;99.90
23873;DHT22;42884;50.718;4.630;2024-02-14T05:06:39;10.80;99.90
23873;DHT22;42884;50.718;4.630;2024-02-14T05:09:08;10.80;99.90
23873;DHT22;42884;50.718;4.630;2024-02-14T05:11:36;10.80;99.90
23873;DHT22;42884;50.718;4.630;2024-02-14T05:14:02;10.90;99.90
23873;DHT22;42884;50.718;4.630;2024-02-14T05:16:27;10.90;99.90
23873;DHT22;42884;50.718;4.630;2024-02-14T05:18:53;10.80;99.90
23873;DHT22;42884;50.718;4.630;2024-02-14T05:21:22;10.70;99.90
23873;DHT22;42884;50.718;4.630;2024-02-14T05:23:47;10.80;99.90
23873;DHT22;42884;50.718;4.630;2024-02-14T05:26:13;10.70;99.90
23873;DHT22;42884;50.718;4.630;2024-02-14T05:28:39;10.70;99.90
23873;DHT22;42884;50.718;4.630;2024-02-14T05:31:05;10.60;99.90
23873;DHT22;42884;50.718;4.630;2024-02-14T05:33:31;10.60;99.90
23873;DHT22;42884;50.718;4.630;2024-02-14T05:35:59;10.60;99.90
23873;DHT22;42884;50.718;4.630;2024-02-14T05:38:25;10.60;99.90
23873;DHT22;42884;50.718;4.630;2024-02-14T05:40:51;10.60;99.90
23873;DHT22;42884;50.718;4.630;2024-02-14T05:43:17;10.70;99.90
23873;DHT22;42884;50.718;4.630;2024-02-14T05:45:44;10.70;99.90
23873;DHT22;42884;50.718;4.630;2024-02-14T05:48:09;10.70;99.90
23873;DHT22;42884;50.718;4.630;2024-02-14T05:50:35;10.80;99.90
23873;DHT22;42884;50.718;4.630;2024-02-14T05:53:03;10.80;99.90
23873;DHT22;42884;50.718;4.630;2024-02-14T05:55:29;10.80;99.90
23873;DHT22;42884;50.718;4.630;2024-02-14T05:57:54;10.90;99.90
23873;DHT22;42884;50.718;4.630;2024-02-14T06:00:21;10.90;99.90
23873;DHT22;42884;50.718;4.630;2024-02-14T06:02:48;10.90;99.90
23873;DHT22;42884;50.718;4.630;2024-02-14T06:05:14;10.90;99.90
23873;DHT22;42884;50.718;4.630;2024-02-14T06:07:41;10.90;99.90
23873;DHT22;42884;50.718;4.630;2024-02-14T06:10:08;10.90;99.90
23873;DHT22;42884;50.718;4.630;2024-02-14T06:12:34;11.00;99.90
23873;DHT22;42884;50.718;4.630;2024-02-14T06:15:04;11.00;99.90
23873;DHT22;42884;50.718;4.630;2024-02-14T06:17:30;11.00;99.90
23873;DHT22;42884;50.718;4.630;2024-02-14T06:19:56;11.00;99.90
23873;DHT22;42884;50.718;4.630;2024-02-14T06:22:22;11.00;99.90
23873;DHT22;42884;50.718;4.630;2024-02-14T06:24:48;11.10;99.90
23873;DHT22;42884;50.718;4.630;2024-02-14T06:27:16;11.00;99.90
23873;DHT22;42884;50.718;4.630;2024-02-14T06:29:43;11.10;99.90
23873;DHT22;42884;50.718;4.630;2024-02-14T06:32:09;11.10;99.90
23873;DHT22;42884;50.718;4.630;2024-02-14T06:34:37;11.00;99.90
23873;DHT22;42884;50.718;4.630;2024-02-14T06:37:03;11.00;99.90
23873;DHT22;42884;50.718;4.630;2024-02-14T06:39:29;10.90;99.90
23873;DHT22;42884;50.718;4.630;2024-02-14T06:41:56;10.90;99.90
23873;DHT22;42884;50.718;4.630;2024-02-14T06:44:23;11.00;99.90
23873;DHT22;42884;50.718;4.630;2024-02-14T06:46:49;10.90;99.90
23873;DHT22;42884;50.718;4.630;2024-02-14T06:49:16;11.10;99.90
23873;DHT22;42884;50.718;4.630;2024-02-14T06:51:45;11.10;99.90
23873;DHT22;42884;50.718;4.630;2024-02-14T06:54:14;11.20;99.90
23873;DHT22;42884;50.718;4.630;2024-02-14T06:56:40;11.20;99.90
23873;DHT22;42884;50.718;4.630;2024-02-14T06:59:05;11.20;99.90
23873;DHT22;42884;50.718;4.630;2024-02-14T07:01:34;11.30;99.90
23873;DHT22;42884;50.718;4.630;2024-02-14T07:04:00;11.40;99.90
23873;DHT22;42884;50.718;4.630;2024-02-14T07:06:27;11.30;99.90
23873;DHT22;42884;50.718;4.630;2024-02-14T07:08:53;11.30;99.90
23873;DHT22;42884;50.718;4.630;2024-02-14T07:11:19;11.30;99.90
23873;DHT22;42884;50.718;4.630;2024-02-14T07:13:45;11.30;99.90
23873;DHT22;42884;50.718;4.630;2024-02-14T07:16:11;11.40;99.90
23873;DHT22;42884;50.718;4.630;2024-02-14T07:18:37;11.50;99.90
23873;DHT22;42884;50.718;4.630;2024-02-14T07:21:03;11.50;99.90
23873;DHT22;42884;50.718;4.630;2024-02-14T07:23:31;11.50;99.90
23873;DHT22;42884;50.718;4.630;2024-02-14T07:25:58;11.50;99.90
23873;DHT22;42884;50.718;4.630;2024-02-14T07:28:27;11.50;99.90
23873;DHT22;42884;50.718;4.630;2024-02-14T07:30:52;11.50;99.90
23873;DHT22;42884;50.718;4.630;2024-02-14T07:33:18;11.30;99.90
23873;DHT22;42884;50.718;4.630;2024-02-14T07:35:44;11.30;99.90
23873;DHT22;42884;50.718;4.630;2024-02-14T07:38:10;11.30;99.90
23873;DHT22;42884;50.718;4.630;2024-02-14T07:40:36;11.30;99.90
23873;DHT22;42884;50.718;4.630;2024-02-14T07:43:02;11.40;99.90
23873;DHT22;42884;50.718;4.630;2024-02-14T07:45:28;11.40;99.90
23873;DHT22;42884;50.718;4.630;2024-02-14T07:47:54;11.40;99.90
23873;DHT22;42884;50.718;4.630;2024-02-14T07:50:19;11.50;99.90
23873;DHT22;42884;50.718;4.630;2024-02-14T07:52:46;11.50;99.90
23873;DHT22;42884;50.718;4.630;2024-02-14T07:55:12;11.50;99.90
23873;DHT22;42884;50.718;4.630;2024-02-14T07:57:39;11.50;99.90
23873;DHT22;42884;50.718;4.630;2024-02-14T08:00:06;11.50;99.90
23873;DHT22;42884;50.718;4.630;2024-02-14T08:02:34;11.50;99.90
23873;DHT22;42884;50.718;4.630;2024-02-14T08:05:00;11.60;99.90
23873;DHT22;42884;50.718;4.630;2024-02-14T08:07:25;11.60;99.90
23873;DHT22;42884;50.718;4.630;2024-02-14T08:09:51;11.50;99.90
23873;DHT22;42884;50.718;4.630;2024-02-14T08:12:17;11.60;99.90
23873;DHT22;42884;50.718;4.630;2024-02-14T08:14:43;11.70;99.90
23873;DHT22;42884;50.718;4.630;2024-02-14T08:17:09;11.60;99.90
23873;DHT22;42884;50.718;4.630;2024-02-14T08:19:34;11.70;99.90
23873;DHT22;42884;50.718;4.630;2024-02-14T08:22:00;11.70;99.90
23873;DHT22;42884;50.718;4.630;2024-02-14T08:24:27;11.70;99.90
23873;DHT22;42884;50.718;4.630;2024-02-14T08:26:54;11.70;99.90
23873;DHT22;42884;50.718;4.630;2024-02-14T08:29:20;11.70;99.90
23873;DHT22;42884;50.718;4.630;2024-02-14T08:31:46;11.80;99.90
23873;DHT22;42884;50.718;4.630;2024-02-14T08:34:12;11.80;99.90
23873;DHT22;42884;50.718;4.630;2024-02-14T08:36:38;11.80;99.90
23873;DHT22;42884;50.718;4.630;2024-02-14T08:39:10;11.80;99.90
23873;DHT22;42884;50.718;4.630;2024-02-14T08:41:37;11.80;99.90
23873;DHT22;42884;50.718;4.630;2024-02-14T08:44:03;11.70;99.90
23873;DHT22;42884;50.718;4.630;2024-02-14T08:46:31;11.80;99.90
23873;DHT22;42884;50.718;4.630;2024-02-14T08:48:57;11.70;99.90
23873;DHT22;42884;50.718;4.630;2024-02-14T08:51:29;11.70;99.90
23873;DHT22;42884;50.718;4.630;2024-02-14T08:53:54;11.60;99.90
23873;DHT22;42884;50.718;4.630;2024-02-14T08:56:22;11.50;99.90
23873;DHT22;42884;50.718;4.630;2024-02-14T08:58:49;11.60;99.90
23873;DHT22;42884;50.718;4.630;2024-02-14T09:01:14;11.60;99.90
23873;DHT22;42884;50.718;4.630;2024-02-14T09:03:42;11.50;99.90
23873;DHT22;42884;50.718;4.630;2024-02-14T09:06:15;11.50;99.90
23873;DHT22;42884;50.718;4.630;2024-02-14T09:08:43;11.60;99.90
23873;DHT22;42884;50.718;4.630;2024-02-14T09:11:09;11.60;99.90
23873;DHT22;42884;50.718;4.630;2024-02-14T09:13:35;11.70;99.90
23873;DHT22;42884;50.718;4.630;2024-02-14T09:16:01;11.70;99.90
23873;DHT22;42884;50.718;4.630;2024-02-14T09:18:26;11.60;99.90
23873;DHT22;42884;50.718;4.630;2024-02-14T09:20:52;11.70;99.90
23873;DHT22;42884;50.718;4.630;2024-02-14T09:23:18;11.60;99.90
23873;DHT22;42884;50.718;4.630;2024-02-14T09:25:48;11.70;99.90
23873;DHT22;42884;50.718;4.630;2024-02-14T09:28:18;11.80;99.90
23873;DHT22;42884;50.718;4.630;2024-02-14T09:30:44;11.90;99.90
23873;DHT22;42884;50.718;4.630;2024-02-14T09:33:10;11.90;99.90
23873;DHT22;42884;50.718;4.630;2024-02-14T09:35:37;11.90;99.90
23873;DHT22;42884;50.718;4.630;2024-02-14T09:38:05;11.90;99.90
23873;DHT22;42884;50.718;4.630;2024-02-14T09:40:31;11.90;99.90
23873;DHT22;42884;50.718;4.630;2024-02-14T09:43:03;11.90;99.90
23873;DHT22;42884;50.718;4.630;2024-02-14T09:45:31;12.00;99.90
23873;DHT22;42884;50.718;4.630;2024-02-14T09:48:01;12.10;99.90
23873;DHT22;42884;50.718;4.630;2024-02-14T09:50:31;11.90;99.90
23873;DHT22;42884;50.718;4.630;2024-02-14T09:53:02;11.80;99.90
23873;DHT22;42884;50.718;4.630;2024-02-14T09:55:30;12.00;99.90
23873;DHT22;42884;50.718;4.630;2024-02-14T09:57:59;12.00;99.90
23873;DHT22;42884;50.718;4.630;2024-02-14T10:00:31;12.00;99.90
23873;DHT22;42884;50.718;4.630;2024-02-14T10:02:57;11.90;99.90
23873;DHT22;42884;50.718;4.630;2024-02-14T10:05:23;11.90;99.90
23873;DHT22;42884;50.718;4.630;2024-02-14T10:07:49;11.90;99.90
23873;DHT22;42884;50.718;4.630;2024-02-14T10:10:15;11.90;99.90
23873;DHT22;42884;50.718;4.630;2024-02-14T10:12:42;11.90;99.90
23873;DHT22;42884;50.718;4.630;2024-02-14T10:15:11;11.90;99.90
23873;DHT22;42884;50.718;4.630;2024-02-14T10:17:40;12.00;99.90
23873;DHT22;42884;50.718;4.630;2024-02-14T10:20:16;11.90;99.90
23873;DHT22;42884;50.718;4.630;2024-02-14T10:22:42;11.90;99.90
23873;DHT22;42884;50.718;4.630;2024-02-14T10:25:12;12.00;99.90
23873;DHT22;42884;50.718;4.630;2024-02-14T10:27:43;12.10;99.90
23873;DHT22;42884;50.718;4.630;2024-02-14T10:30:10;12.20;99.90
23873;DHT22;42884;50.718;4.630;2024-02-14T10:32:36;12.20;99.90
23873;DHT22;42884;50.718;4.630;2024-02-14T10:35:04;12.20;99.90
23873;DHT22;42884;50.718;4.630;2024-02-14T10:37:34;12.30;99.90
23873;DHT22;42884;50.718;4.630;2024-02-14T10:40:04;12.30;99.90
23873;DHT22;42884;50.718;4.630;2024-02-14T10:42:36;12.30;99.90
23873;DHT22;42884;50.718;4.630;2024-02-14T10:45:03;12.10;99.90
23873;DHT22;42884;50.718;4.630;2024-02-14T10:47:31;12.20;99.90
23873;DHT22;42884;50.718;4.630;2024-02-14T10:50:03;12.10;99.90
23873;DHT22;42884;50.718;4.630;2024-02-14T10:52:37;12.20;99.90
23873;DHT22;42884;50.718;4.630;2024-02-14T10:55:15;12.30;99.90
23873;DHT22;42884;50.718;4.630;2024-02-14T10:57:47;12.30;99.90
23873;DHT22;42884;50.718;4.630;2024-02-14T11:00:18;12.30;99.90
23873;DHT22;42884;50.718;4.630;2024-02-14T11:02:54;12.40;99.90
23873;DHT22;42884;50.718;4.630;2024-02-14T11:05:20;12.30;99.90
23873;DHT22;42884;50.718;4.630;2024-02-14T11:07:51;12.30;99.90
23873;DHT22;42884;50.718;4.630;2024-02-14T11:10:19;12.20;99.90
23873;DHT22;42884;50.718;4.630;2024-02-14T11:12:47;12.40;99.90
23873;DHT22;42884;50.718;4.630;2024-02-14T11:15:26;12.40;99.90
23873;DHT22;42884;50.718;4.630;2024-02-14T11:18:07;12.40;99.90
23873;DHT22;42884;50.718;4.630;2024-02-14T11:20:41;12.50;99.90
23873;DHT22;42884;50.718;4.630;2024-02-14T11:23:11;12.50;99.90
23873;DHT22;42884;50.718;4.630;2024-02-14T11:25:39;12.50;99.90
23873;DHT22;42884;50.718;4.630;2024-02-14T11:28:16;12.60;99.90
23873;DHT22;42884;50.718;4.630;2024-02-14T11:30:43;12.50;99.90
23873;DHT22;42884;50.718;4.630;2024-02-14T11:33:20;12.60;99.90
23873;DHT22;42884;50.718;4.630;2024-02-14T11:35:51;12.60;99.90
23873;DHT22;42884;50.718;4.630;2024-02-14T11:38:19;12.60;99.90
23873;DHT22;42884;50.718;4.630;2024-02-14T11:40:47;12.60;99.90
23873;DHT22;42884;50.718;4.630;2024-02-14T11:43:18;12.50;99.90
23873;DHT22;42884;50.718;4.630;2024-02-14T11:45:46;12.60;99.90
23873;DHT22;42884;50.718;4.630;2024-02-14T11:48:18;12.70;99.90
23873;DHT22;42884;50.718;4.630;2024-02-14T11:50:46;12.60;99.90
23873;DHT22;42884;50.718;4.630;2024-02-14T11:53:14;12.70;99.90
23873;DHT22;42884;50.718;4.630;2024-02-14T11:55:43;12.70;99.90
23873;DHT22;42884;50.718;4.630;2024-02-14T11:58:12;12.80;99.90
23873;DHT22;42884;50.718;4.630;2024-02-14T12:00:39;12.80;99.90
23873;DHT22;42884;50.718;4.630;2024-02-14T12:03:27;12.80;99.90
23873;DHT22;42884;50.718;4.630;2024-02-14T12:05:56;12.70;99.90
23873;DHT22;42884;50.718;4.630;2024-02-14T12:08:28;12.70;99.90
23873;DHT22;42884;50.718;4.630;2024-02-14T12:10:54;12.70;99.90
23873;DHT22;42884;50.718;4.630;2024-02-14T12:13:23;12.70;99.90
23873;DHT22;42884;50.718;4.630;2024-02-14T12:15:51;12.80;99.90
23873;DHT22;42884;50.718;4.630;2024-02-14T12:18:18;12.90;99.90
23873;DHT22;42884;50.718;4.630;2024-02-14T12:20:46;12.90;99.90
23873;DHT22;42884;50.718;4.630;2024-02-14T12:23:19;12.90;99.90
23873;DHT22;42884;50.718;4.630;2024-02-14T12:25:48;13.00;99.90
23873;DHT22;42884;50.718;4.630;2024-02-14T12:28:19;13.00;99.90
23873;DHT22;42884;50.718;4.630;2024-02-14T12:30:50;13.10;99.90
23873;DHT22;42884;50.718;4.630;2024-02-14T12:33:23;13.10;99.90
23873;DHT22;42884;50.718;4.630;2024-02-14T12:35:56;13.10;99.90
23873;DHT22;42884;50.718;4.630;2024-02-14T12:38:24;13.10;99.90
23873;DHT22;42884;50.718;4.630;2024-02-14T12:40:50;13.10;99.90
23873;DHT22;42884;50.718;4.630;2024-02-14T12:43:36;13.20;99.90
23873;DHT22;42884;50.718;4.630;2024-02-14T12:46:04;13.30;99.90
23873;DHT22;42884;50.718;4.630;2024-02-14T12:48:30;13.20;99.90
23873;DHT22;42884;50.718;4.630;2024-02-14T12:50:56;13.20;99.90
23873;DHT22;42884;50.718;4.630;2024-02-14T12:53:23;13.30;99.90
23873;DHT22;42884;50.718;4.630;2024-02-14T12:55:49;13.20;99.90
23873;DHT22;42884;50.718;4.630;2024-02-14T12:58:18;13.30;99.90
23873;DHT22;42884;50.718;4.630;2024-02-14T13:00:44;13.30;99.90
23873;DHT22;42884;50.718;4.630;2024-02-14T13:03:11;13.30;99.90
23873;DHT22;42884;50.718;4.630;2024-02-14T13:05:37;13.20;99.90
23873;DHT22;42884;50.718;4.630;2024-02-14T13:08:03;13.10;99.90
23873;DHT22;42884;50.718;4.630;2024-02-14T13:10:29;13.10;99.90
23873;DHT22;42884;50.718;4.630;2024-02-14T13:12:57;13.20;99.90
23873;DHT22;42884;50.718;4.630;2024-02-14T13:15:22;13.20;99.90
23873;DHT22;42884;50.718;4.630;2024-02-14T13:17:51;13.20;99.90
23873;DHT22;42884;50.718;4.630;2024-02-14T13:20:17;13.10;99.90
23873;DHT22;42884;50.718;4.630;2024-02-14T13:22:43;13.20;99.90
23873;DHT22;42884;50.718;4.630;2024-02-14T13:25:10;13.20;99.90
23873;DHT22;42884;50.718;4.630;2024-02-14T13:27:36;13.10;99.90
23873;DHT22;42884;50.718;4.630;2024-02-14T13:30:02;13.10;99.90
23873;DHT22;42884;50.718;4.630;2024-02-14T13:32:27;13.00;99.90
23873;DHT22;42884;50.718;4.630;2024-02-14T13:34:53;13.10;99.90
23873;DHT22;42884;50.718;4.630;2024-02-14T13:37:19;13.10;99.90
23873;DHT22;42884;50.718;4.630;2024-02-14T13:39:46;13.00;99.90
23873;DHT22;42884;50.718;4.630;2024-02-14T13:42:12;13.10;99.90
23873;DHT22;42884;50.718;4.630;2024-02-14T13:44:38;13.10;99.90
23873;DHT22;42884;50.718;4.630;2024-02-14T13:47:04;13.10;99.90
23873;DHT22;42884;50.718;4.630;2024-02-14T13:49:30;13.00;99.90
23873;DHT22;42884;50.718;4.630;2024-02-14T13:51:56;13.10;99.90
23873;DHT22;42884;50.718;4.630;2024-02-14T13:54:23;13.10;99.90
23873;DHT22;42884;50.718;4.630;2024-02-14T13:57:07;13.20;99.90
23873;DHT22;42884;50.718;4.630;2024-02-14T13:59:33;13.10;99.90
23873;DHT22;42884;50.718;4.630;2024-02-14T14:01:59;13.20;99.90
23873;DHT22;42884;50.718;4.630;2024-02-14T14:04:25;13.20;99.90
23873;DHT22;42884;50.718;4.630;2024-02-14T14:06:56;13.10;99.90
23873;DHT22;42884;50.718;4.630;2024-02-14T14:09:22;13.10;99.90
23873;DHT22;42884;50.718;4.630;2024-02-14T14:11:48;13.10;99.90
23873;DHT22;42884;50.718;4.630;2024-02-14T14:14:16;13.10;99.90
23873;DHT22;42884;50.718;4.630;2024-02-14T14:16:44;13.20;99.90
23873;DHT22;42884;50.718;4.630;2024-02-14T14:19:10;13.20;99.90
23873;DHT22;42884;50.718;4.630;2024-02-14T14:21:36;13.30;99.90
23873;DHT22;42884;50.718;4.630;2024-02-14T14:24:04;13.30;99.90
23873;DHT22;42884;50.718;4.630;2024-02-14T14:26:30;13.20;99.90
23873;DHT22;42884;50.718;4.630;2024-02-14T14:29:17;13.20;99.90
23873;DHT22;42884;50.718;4.630;2024-02-14T14:31:55;13.20;99.90
23873;DHT22;42884;50.718;4.630;2024-02-14T14:34:21;13.20;99.90
23873;DHT22;42884;50.718;4.630;2024-02-14T14:36:47;13.20;99.90
23873;DHT22;42884;50.718;4.630;2024-02-14T14:39:13;13.20;99.90
23873;DHT22;42884;50.718;4.630;2024-02-14T14:41:39;13.30;99.90
23873;DHT22;42884;50.718;4.630;2024-02-14T14:44:05;13.30;99.90
23873;DHT22;42884;50.718;4.630;2024-02-14T14:46:30;13.40;99.90
23873;DHT22;42884;50.718;4.630;2024-02-14T14:48:57;13.60;99.90
23873;DHT22;42884;50.718;4.630;2024-02-14T14:51:23;13.50;99.90
23873;DHT22;42884;50.718;4.630;2024-02-14T14:53:49;13.50;99.90
23873;DHT22;42884;50.718;4.630;2024-02-14T14:56:15;13.40;99.90
23873;DHT22;42884;50.718;4.630;2024-02-14T14:58:41;13.40;99.90
23873;DHT22;42884;50.718;4.630;2024-02-14T15:01:08;13.50;99.90
23873;DHT22;42884;50.718;4.630;2024-02-14T15:03:34;13.60;99.90
23873;DHT22;42884;50.718;4.630;2024-02-14T15:06:03;13.70;99.90
23873;DHT22;42884;50.718;4.630;2024-02-14T15:08:29;13.70;99.90
23873;DHT22;42884;50.718;4.630;2024-02-14T15:10:55;13.70;99.90
23873;DHT22;42884;50.718;4.630;2024-02-14T15:13:22;13.70;99.90
23873;DHT22;42884;50.718;4.630;2024-02-14T15:15:49;13.60;99.90
23873;DHT22;42884;50.718;4.630;2024-02-14T15:18:17;13.50;99.90
23873;DHT22;42884;50.718;4.630;2024-02-14T15:20:43;13.60;99.90
23873;DHT22;42884;50.718;4.630;2024-02-14T15:23:09;13.50;99.90
23873;DHT22;42884;50.718;4.630;2024-02-14T15:25:35;13.60;99.90
23873;DHT22;42884;50.718;4.630;2024-02-14T15:28:09;13.70;99.90
23873;DHT22;42884;50.718;4.630;2024-02-14T15:30:43;13.70;99.90